createdAt,value
2018-03-22T00:00:25.401Z,78.58
2018-03-22T00:02:53.681Z,78.43
2018-03-22T00:05:21.940Z,78.60
2018-03-22T00:07:50.213Z,78.59
2018-03-22T00:10:18.488Z,78.47
2018-03-22T00:12:46.745Z,78.27
2018-03-22T00:15:15.765Z,78.35
2018-03-22T00:17:44.045Z,78.42
2018-03-22T00:20:12.300Z,78.34
2018-03-22T00:22:41.339Z,78.73
2018-03-22T00:25:09.606Z,79.87
2018-03-22T00:27:37.865Z,79.72
2018-03-22T00:30:06.152Z,79.40
2018-03-22T00:32:34.405Z,80.40
2018-03-22T00:35:03.442Z,80.00
2018-03-22T00:37:31.719Z,80.12
2018-03-22T00:39:59.972Z,79.86
2018-03-22T00:42:28.223Z,80.14
2018-03-22T00:44:57.276Z,79.78
2018-03-22T00:47:25.534Z,79.43
2018-03-22T00:49:53.807Z,79.25
2018-03-22T00:52:22.067Z,79.34
2018-03-22T00:54:50.331Z,79.08
2018-03-22T00:57:18.608Z,78.92
2018-03-22T00:59:46.866Z,79.47
2018-03-22T01:02:15.896Z,79.71
2018-03-22T01:04:44.172Z,79.78
2018-03-22T01:07:12.428Z,80.02
2018-03-22T01:09:40.696Z,79.51
2018-03-22T01:12:09.740Z,79.74
2018-03-22T01:14:37.995Z,79.81
2018-03-22T01:17:06.259Z,80.22
2018-03-22T01:19:34.531Z,81.38
2018-03-22T01:22:04.077Z,81.22
2018-03-22T01:24:32.325Z,81.43
2018-03-22T01:27:00.632Z,81.28
2018-03-22T01:29:28.900Z,80.94
2018-03-22T01:31:57.151Z,80.57
2018-03-22T01:34:25.432Z,80.78
2018-03-22T01:36:53.692Z,80.88
2018-03-22T01:39:21.959Z,80.28
2018-03-22T01:41:50.236Z,80.63
2018-03-22T01:44:18.496Z,80.50
2018-03-22T01:46:47.533Z,80.44
2018-03-22T01:49:15.786Z,80.22
2018-03-22T01:51:44.063Z,80.31
2018-03-22T01:54:12.336Z,79.90
2018-03-22T01:56:40.592Z,79.72
2018-03-22T01:59:09.617Z,79.78
2018-03-22T02:01:37.888Z,79.94
2018-03-22T02:04:06.149Z,80.29
2018-03-22T02:06:35.219Z,79.76
2018-03-22T02:09:03.476Z,80.21
2018-03-22T02:11:31.732Z,79.85
2018-03-22T02:14:00.013Z,80.21
2018-03-22T02:16:28.306Z,80.33
2018-03-22T02:18:56.532Z,80.76
2018-03-22T02:21:24.817Z,80.58
2018-03-22T02:23:53.076Z,80.59
2018-03-22T02:26:22.099Z,79.40
2018-03-22T02:28:50.368Z,78.96
2018-03-22T02:31:18.627Z,79.40
2018-03-22T02:33:46.893Z,80.28
2018-03-22T02:36:15.941Z,80.40
2018-03-22T02:38:44.200Z,80.05
2018-03-22T02:41:12.476Z,79.82
2018-03-22T02:43:40.753Z,79.70
2018-03-22T02:46:09.015Z,79.77
2018-03-22T02:48:37.271Z,80.05
2018-03-22T02:51:06.306Z,80.26
2018-03-22T02:53:34.565Z,79.91
2018-03-22T02:56:02.845Z,80.49
2018-03-22T02:58:31.121Z,81.32
2018-03-22T03:00:59.372Z,81.03
2018-03-22T03:03:27.656Z,80.87
2018-03-22T03:05:55.906Z,80.71
2018-03-22T03:08:24.953Z,81.31
2018-03-22T03:10:53.209Z,81.96
2018-03-22T03:13:21.460Z,82.16
2018-03-22T03:15:50.531Z,81.70
2018-03-22T03:18:19.556Z,81.68
2018-03-22T03:20:48.572Z,81.79
2018-03-22T03:23:16.848Z,82.37
2018-03-22T03:25:45.103Z,82.51
2018-03-22T03:28:13.369Z,82.28
2018-03-22T03:30:42.412Z,83.04
2018-03-22T03:33:10.676Z,82.53
2018-03-22T03:35:38.931Z,82.25
2018-03-22T03:38:07.211Z,82.16
2018-03-22T03:40:35.459Z,83.26
2018-03-22T03:43:04.503Z,82.79
2018-03-22T03:45:32.770Z,83.34
2018-03-22T03:48:01.021Z,83.97
2018-03-22T03:50:29.304Z,83.92
2018-03-22T03:52:57.571Z,83.45
2018-03-22T03:55:26.586Z,82.94
2018-03-22T03:57:54.859Z,82.97
2018-03-22T04:00:23.103Z,83.76
2018-03-22T04:02:52.124Z,83.28
2018-03-22T04:05:20.388Z,82.76
2018-03-22T04:07:48.648Z,83.08
2018-03-22T04:10:17.688Z,82.91
2018-03-22T04:12:45.945Z,83.22
2018-03-22T04:15:14.197Z,83.28
2018-03-22T04:17:43.239Z,83.51
2018-03-22T04:20:11.493Z,83.94
2018-03-22T04:22:39.756Z,83.75
2018-03-22T04:25:08.040Z,83.62
2018-03-22T04:27:36.296Z,83.02
2018-03-22T04:30:05.329Z,83.02
2018-03-22T04:32:33.617Z,83.34
2018-03-22T04:35:01.872Z,82.34
2018-03-22T04:37:30.133Z,82.29
2018-03-22T04:39:58.404Z,82.88
2018-03-22T04:42:26.664Z,82.80
2018-03-22T04:44:55.680Z,82.63
2018-03-22T04:47:23.952Z,82.70
2018-03-22T04:49:52.214Z,83.04
2018-03-22T04:52:21.248Z,82.63
2018-03-22T04:54:49.495Z,82.60
2018-03-22T04:57:17.791Z,82.88
2018-03-22T04:59:46.066Z,83.61
2018-03-22T05:02:15.156Z,84.06
2018-03-22T05:04:43.420Z,83.71
2018-03-22T05:07:11.692Z,84.04
2018-03-22T05:09:39.952Z,84.24
2018-03-22T05:12:08.967Z,84.02
2018-03-22T05:14:37.252Z,83.94
2018-03-22T05:17:05.516Z,83.91
2018-03-22T05:19:33.771Z,84.64
2018-03-22T05:22:02.822Z,84.08
2018-03-22T05:24:31.099Z,84.28
2018-03-22T05:26:59.356Z,84.92
2018-03-22T05:29:27.648Z,84.42
2018-03-22T05:31:55.897Z,83.91
2018-03-22T05:34:24.182Z,84.23
2018-03-22T05:36:52.432Z,84.67
2018-03-22T05:39:21.455Z,84.67
2018-03-22T05:41:49.723Z,85.31
2018-03-22T05:44:17.988Z,85.57
2018-03-22T05:46:46.265Z,85.93
2018-03-22T05:49:14.524Z,85.62
2018-03-22T05:51:43.545Z,85.49
2018-03-22T05:54:11.826Z,85.42
2018-03-22T05:56:40.932Z,85.48
2018-03-22T05:59:09.212Z,84.79
2018-03-22T06:01:37.471Z,85.76
2018-03-22T06:04:05.753Z,85.61
2018-03-22T06:06:34.029Z,85.59
2018-03-22T06:09:02.304Z,84.86
2018-03-22T06:11:30.580Z,85.56
2018-03-22T06:13:58.841Z,85.48
2018-03-22T06:16:27.111Z,85.54
2018-03-22T06:18:55.393Z,86.09
2018-03-22T06:21:23.683Z,86.96
2018-03-22T06:23:51.942Z,86.92
2018-03-22T06:26:20.200Z,86.39
2018-03-22T06:28:49.246Z,86.74
2018-03-22T06:31:17.520Z,87.93
2018-03-22T06:33:45.788Z,88.05
2018-03-22T06:36:14.060Z,87.32
2018-03-22T06:38:42.328Z,87.21
2018-03-22T06:41:10.584Z,87.17
2018-03-22T06:43:39.623Z,86.91
2018-03-22T06:46:07.884Z,86.49
2018-03-22T06:48:36.146Z,86.53
2018-03-22T06:51:04.412Z,86.99
2018-03-22T06:53:32.685Z,87.08
2018-03-22T06:56:01.703Z,86.79
2018-03-22T06:58:29.972Z,86.88
2018-03-22T07:00:58.231Z,87.46
2018-03-22T07:03:27.261Z,89.13
2018-03-22T07:05:55.532Z,89.05
2018-03-22T07:08:23.808Z,88.78
2018-03-22T07:10:52.056Z,89.43
2018-03-22T07:13:20.316Z,88.83
2018-03-22T07:15:49.361Z,88.86
2018-03-22T07:18:17.657Z,88.52
2018-03-22T07:20:45.911Z,88.59
2018-03-22T07:23:14.476Z,88.72
2018-03-22T07:25:42.737Z,88.87
2018-03-22T07:28:10.993Z,88.59
2018-03-22T07:30:40.040Z,88.73
2018-03-22T07:33:08.308Z,88.68
2018-03-22T07:35:36.575Z,89.86
2018-03-22T07:38:04.854Z,90.46
2018-03-22T07:40:33.111Z,90.71
2018-03-22T07:43:06.920Z,90.72
2018-03-22T07:45:35.167Z,91.14
2018-03-22T07:48:04.204Z,90.29
2018-03-22T07:50:32.493Z,90.61
2018-03-22T07:53:00.748Z,90.79
2018-03-22T07:55:29.009Z,91.69
2018-03-22T07:57:58.047Z,91.65
2018-03-22T08:00:26.304Z,92.04
2018-03-22T08:03:02.128Z,92.47
2018-03-22T08:05:31.144Z,91.76
2018-03-22T08:07:59.408Z,91.85
2018-03-22T08:10:27.712Z,92.48
2018-03-22T08:12:55.979Z,92.19
2018-03-22T08:15:24.231Z,91.03
2018-03-22T08:17:52.505Z,90.49
2018-03-22T08:20:21.532Z,91.51
2018-03-22T08:22:49.808Z,90.84
2018-03-22T08:25:18.140Z,89.85
2018-03-22T08:27:47.166Z,90.48
2018-03-22T08:30:15.475Z,90.58
2018-03-22T08:32:43.732Z,89.92
2018-03-22T08:35:11.984Z,90.16
2018-03-22T08:37:40.260Z,90.08
2018-03-22T08:40:08.512Z,87.68
2018-03-22T08:42:37.556Z,88.42
2018-03-22T08:45:05.847Z,89.86
2018-03-22T08:47:34.097Z,86.72
2018-03-22T08:50:02.349Z,87.44
2018-03-22T08:52:30.612Z,86.00
2018-03-22T08:54:59.634Z,86.79
2018-03-22T08:57:27.899Z,87.06
2018-03-22T08:59:56.186Z,87.37
2018-03-22T09:02:24.439Z,88.45
2018-03-22T09:04:53.628Z,88.42
2018-03-22T09:07:22.640Z,88.17
2018-03-22T09:09:50.912Z,87.49
2018-03-22T09:12:19.167Z,87.48
2018-03-22T09:14:48.183Z,88.32
2018-03-22T09:17:16.455Z,88.68
2018-03-22T09:19:45.481Z,88.62
2018-03-22T09:22:13.720Z,88.79
2018-03-22T09:24:42.764Z,88.49
2018-03-22T09:27:11.016Z,88.89
2018-03-22T09:29:39.264Z,89.26
2018-03-22T09:32:08.305Z,89.05
2018-03-22T09:34:36.547Z,88.86
2018-03-22T09:37:04.799Z,88.84
2018-03-22T09:39:33.836Z,88.36
2018-03-22T09:42:02.085Z,88.77
2018-03-22T09:44:30.355Z,89.27
2018-03-22T09:46:59.387Z,87.11
2018-03-22T09:49:27.644Z,86.82
2018-03-22T09:51:55.900Z,86.62
2018-03-22T09:54:24.927Z,85.94
2018-03-22T09:56:53.177Z,86.36
2018-03-22T09:59:21.427Z,86.40
2018-03-22T10:01:49.693Z,86.37
2018-03-22T10:04:19.456Z,87.83
2018-03-22T10:06:47.719Z,87.20
2018-03-22T10:09:15.972Z,87.37
2018-03-22T10:11:44.987Z,87.31
2018-03-22T10:14:13.252Z,86.45
2018-03-22T10:16:42.262Z,86.56
2018-03-22T10:19:10.539Z,85.26
2018-03-22T10:21:38.798Z,84.66
2018-03-22T10:24:07.812Z,85.49
2018-03-22T10:26:36.080Z,85.55
2018-03-22T10:29:04.327Z,84.26
2018-03-22T10:31:33.364Z,83.69
2018-03-22T10:34:01.632Z,83.22
2018-03-22T10:36:29.881Z,83.17
2018-03-22T10:38:58.917Z,82.12
2018-03-22T10:41:27.172Z,81.35
2018-03-22T10:43:55.431Z,81.16
2018-03-22T10:46:24.470Z,81.66
2018-03-22T10:48:52.719Z,81.23
2018-03-22T10:51:21.008Z,81.43
2018-03-22T10:53:49.256Z,79.90
2018-03-22T10:56:18.288Z,80.68
2018-03-22T10:58:46.555Z,79.42
2018-03-22T11:01:20.252Z,78.72
2018-03-22T11:03:53.487Z,78.64
2018-03-22T11:06:22.516Z,79.12
2018-03-22T11:08:51.533Z,78.73
2018-03-22T11:11:19.804Z,77.36
2018-03-22T11:13:48.064Z,76.76
2018-03-22T11:16:17.112Z,77.26
2018-03-22T11:18:45.364Z,76.18
2018-03-22T11:21:13.650Z,76.43
2018-03-22T11:23:41.898Z,75.51
2018-03-22T11:26:10.148Z,74.78
2018-03-22T11:28:39.175Z,76.65
2018-03-22T11:31:07.433Z,74.98
2018-03-22T11:33:35.760Z,74.89
2018-03-22T11:36:04.025Z,74.04
2018-03-22T11:38:32.276Z,74.76
2018-03-22T11:41:00.540Z,74.90
2018-03-22T11:43:28.817Z,75.01
2018-03-22T11:45:57.064Z,77.55
2018-03-22T11:48:25.492Z,77.31
2018-03-22T11:50:53.782Z,78.17
2018-03-22T11:53:22.048Z,77.34
2018-03-22T11:55:50.304Z,76.79
2018-03-22T11:58:18.553Z,76.76
2018-03-22T12:00:46.853Z,77.94
2018-03-22T12:03:15.859Z,78.41
2018-03-22T12:05:44.112Z,79.17
2018-03-22T12:08:13.224Z,77.45
2018-03-22T12:10:41.480Z,80.09
2018-03-22T12:13:10.502Z,79.02
2018-03-22T12:15:38.784Z,77.91
2018-03-22T12:18:07.035Z,77.71
2018-03-22T12:20:36.059Z,79.45
2018-03-22T12:23:04.307Z,79.29
2018-03-22T12:25:32.556Z,77.11
2018-03-22T12:28:01.609Z,78.23
2018-03-22T12:30:29.870Z,78.86
2018-03-22T12:32:58.132Z,76.76
2018-03-22T12:35:26.423Z,77.98
2018-03-22T12:37:54.675Z,77.29
2018-03-22T12:40:22.924Z,76.01
2018-03-22T12:42:51.187Z,75.52
2018-03-22T12:45:19.435Z,75.59
2018-03-22T12:47:47.684Z,75.81
2018-03-22T12:50:15.987Z,73.23
2018-03-22T12:52:45.477Z,74.96
2018-03-22T12:55:13.753Z,74.74
2018-03-22T12:57:41.999Z,73.00
2018-03-22T13:00:11.036Z,73.52
2018-03-22T13:02:39.283Z,75.44
2018-03-22T13:05:07.551Z,75.48
2018-03-22T13:07:35.832Z,75.80
2018-03-22T13:10:04.870Z,74.84
2018-03-22T13:12:33.112Z,75.48
2018-03-22T13:15:01.369Z,77.00
2018-03-22T13:17:30.397Z,78.48
2018-03-22T13:19:58.686Z,77.80
2018-03-22T13:22:27.784Z,79.30
2018-03-22T13:24:56.064Z,78.50
2018-03-22T13:27:24.317Z,77.65
2018-03-22T13:29:52.623Z,77.61
2018-03-22T13:32:20.860Z,79.50
2018-03-22T13:34:49.106Z,81.23
2018-03-22T13:37:18.127Z,82.68
2018-03-22T13:39:46.405Z,81.64
2018-03-22T13:42:14.656Z,80.79
2018-03-22T13:44:43.698Z,79.69
2018-03-22T13:47:11.940Z,79.32
2018-03-22T13:49:40.197Z,79.41
2018-03-22T13:52:09.224Z,78.96
2018-03-22T13:54:37.492Z,80.95
2018-03-22T13:57:05.760Z,80.12
2018-03-22T13:59:34.797Z,80.24
2018-03-22T14:02:03.064Z,80.35
2018-03-22T14:04:31.326Z,80.98
2018-03-22T14:06:59.603Z,81.99
2018-03-22T14:09:27.875Z,81.45
2018-03-22T14:11:56.118Z,82.05
2018-03-22T14:14:25.139Z,80.02
2018-03-22T14:16:53.399Z,79.62
2018-03-22T14:19:21.668Z,79.06
2018-03-22T14:21:50.679Z,80.08
2018-03-22T14:24:18.983Z,79.38
2018-03-22T14:26:47.224Z,79.76
2018-03-22T14:29:15.491Z,79.53
2018-03-22T14:31:44.511Z,79.74
2018-03-22T14:34:12.764Z,80.39
2018-03-22T14:36:41.808Z,81.91
2018-03-22T14:39:10.064Z,81.32
2018-03-22T14:41:38.316Z,82.30
2018-03-22T14:44:06.597Z,83.17
2018-03-22T14:46:34.852Z,82.62
2018-03-22T14:49:03.868Z,82.23
2018-03-22T14:51:32.140Z,83.37
2018-03-22T14:54:00.406Z,83.82
2018-03-22T14:56:29.422Z,83.26
2018-03-22T14:58:57.707Z,82.89
2018-03-22T15:01:26.009Z,82.96
2018-03-22T15:03:54.215Z,82.61
2018-03-22T15:06:23.298Z,83.29
2018-03-22T15:08:51.555Z,83.48
2018-03-22T15:11:19.817Z,83.22
2018-03-22T15:13:48.091Z,83.30
2018-03-22T15:16:16.380Z,83.65
2018-03-22T15:18:44.652Z,83.59
2018-03-22T15:21:12.916Z,83.37
2018-03-22T15:23:41.177Z,83.62
2018-03-22T15:26:09.423Z,83.32
2018-03-22T15:28:38.458Z,82.92
2018-03-22T15:31:06.710Z,83.07
2018-03-22T15:33:34.980Z,83.13
2018-03-22T15:36:04.137Z,83.28
2018-03-22T15:38:33.207Z,83.86
2018-03-22T15:41:01.461Z,83.45
2018-03-22T15:43:29.744Z,83.48
2018-03-22T15:45:58.180Z,83.23
2018-03-22T15:48:27.579Z,83.32
2018-03-22T15:50:55.920Z,83.14
2018-03-22T15:53:24.185Z,83.12
2018-03-22T15:55:52.469Z,82.69
2018-03-22T15:58:20.867Z,82.59
2018-03-22T16:00:49.148Z,82.36
2018-03-22T16:03:17.435Z,82.45
2018-03-22T16:05:45.750Z,83.50
2018-03-22T16:08:14.034Z,83.78
2018-03-22T16:10:42.445Z,83.99
2018-03-22T16:13:11.888Z,83.66
2018-03-22T16:15:40.176Z,83.42
2018-03-22T16:18:08.456Z,84.00
2018-03-22T16:20:36.757Z,84.26
2018-03-22T16:23:05.135Z,84.43
2018-03-22T16:25:33.842Z,84.92
2018-03-22T16:28:02.233Z,85.27
2018-03-22T16:30:31.805Z,85.47
2018-03-22T16:33:02.031Z,85.36
2018-03-22T16:35:31.359Z,85.08
2018-03-22T16:38:01.474Z,85.69
2018-03-22T16:40:31.047Z,85.62
2018-03-22T16:43:00.450Z,85.49
2018-03-22T16:45:29.341Z,86.30
2018-03-22T16:47:58.067Z,86.23
2018-03-22T16:50:27.399Z,87.36
2018-03-22T16:52:56.591Z,86.76
2018-03-22T16:55:26.131Z,87.20
2018-03-22T16:57:54.837Z,86.60
2018-03-22T17:00:23.606Z,86.56
2018-03-22T17:02:52.830Z,87.49
2018-03-22T17:05:22.718Z,87.10
2018-03-22T17:07:51.717Z,87.39
2018-03-22T17:10:20.626Z,86.89
2018-03-22T17:12:50.429Z,86.19
2018-03-22T17:15:20.396Z,85.85
2018-03-22T17:17:49.786Z,86.51
2018-03-22T17:20:19.540Z,86.63
2018-03-22T17:22:50.296Z,86.61
2018-03-22T17:25:19.989Z,86.00
2018-03-22T17:27:50.637Z,86.11
2018-03-22T17:30:20.579Z,87.02
2018-03-22T17:32:50.502Z,87.17
2018-03-22T17:35:20.650Z,86.24
2018-03-22T17:37:50.670Z,86.53
2018-03-22T17:40:20.694Z,85.98
2018-03-22T17:42:51.857Z,85.13
2018-03-22T17:45:21.581Z,84.53
2018-03-22T17:47:51.699Z,84.12
2018-03-22T17:50:21.678Z,84.04
2018-03-22T17:52:52.369Z,85.01
2018-03-22T17:55:22.239Z,85.28
2018-03-22T17:57:53.299Z,84.70
2018-03-22T18:00:23.123Z,84.23
2018-03-22T18:02:53.158Z,84.71
2018-03-22T18:05:23.013Z,85.89
2018-03-22T18:07:53.563Z,85.53
2018-03-22T18:10:24.287Z,85.74
2018-03-22T18:12:55.051Z,86.52
2018-03-22T18:15:24.800Z,86.28
2018-03-22T18:17:54.936Z,85.96
2018-03-22T18:20:24.945Z,86.21
2018-03-22T18:22:54.841Z,86.17
2018-03-22T18:25:24.908Z,86.41
2018-03-22T18:27:54.951Z,85.79
2018-03-22T18:30:24.786Z,85.47
2018-03-22T18:32:54.585Z,85.19
2018-03-22T18:35:24.654Z,84.74
2018-03-22T18:37:54.535Z,84.41
2018-03-22T18:40:24.428Z,85.64
2018-03-22T18:42:54.366Z,87.04
2018-03-22T18:45:24.470Z,86.73
2018-03-22T18:47:54.890Z,87.14
2018-03-22T18:50:24.740Z,87.34
2018-03-22T18:52:54.677Z,87.34
2018-03-22T18:55:24.603Z,88.68
2018-03-22T18:57:54.603Z,89.39
2018-03-22T19:00:25.294Z,89.79
2018-03-22T19:02:56.073Z,89.64
2018-03-22T19:05:26.558Z,89.13
2018-03-22T19:07:59.842Z,89.05
2018-03-22T19:10:30.712Z,89.23
2018-03-22T19:13:01.622Z,89.41
2018-03-22T19:15:32.338Z,90.10
2018-03-22T19:18:01.685Z,91.21
2018-03-22T19:20:31.047Z,92.30
2018-03-22T19:23:00.365Z,91.84
2018-03-22T19:25:29.779Z,91.13
2018-03-22T19:27:59.070Z,90.77
2018-03-22T19:30:28.360Z,90.24
2018-03-22T19:32:59.764Z,89.42
2018-03-22T19:35:29.776Z,89.55
2018-03-22T19:37:59.290Z,89.43
2018-03-22T19:40:28.615Z,88.99
2018-03-22T19:43:00.954Z,90.35
2018-03-22T19:45:31.865Z,90.51
2018-03-22T19:48:01.699Z,90.69
2018-03-22T19:50:33.246Z,90.52
2018-03-22T19:53:03.352Z,90.99
2018-03-22T19:55:33.908Z,91.69
2018-03-22T19:58:03.959Z,92.33
2018-03-22T20:00:33.857Z,92.39
2018-03-22T20:03:03.273Z,93.74
2018-03-22T20:05:33.408Z,92.85
2018-03-22T20:08:03.244Z,92.02
2018-03-22T20:10:33.251Z,91.92
2018-03-22T20:13:03.362Z,91.74
2018-03-22T20:15:33.995Z,91.34
2018-03-22T20:18:03.830Z,91.38
2018-03-22T20:20:34.472Z,92.20
2018-03-22T20:23:05.400Z,92.46
2018-03-22T20:25:36.250Z,92.11
2018-03-22T20:28:07.014Z,92.31
2018-03-22T20:30:37.066Z,93.37
2018-03-22T20:33:07.994Z,92.95
2018-03-22T20:35:37.909Z,92.25
2018-03-22T20:38:07.878Z,92.17
2018-03-22T20:40:38.486Z,92.05
2018-03-22T20:43:09.240Z,94.08
2018-03-22T20:45:39.887Z,93.81
2018-03-22T20:48:10.083Z,93.79
2018-03-22T20:50:40.748Z,93.48
2018-03-22T20:53:10.765Z,92.79
2018-03-22T20:55:40.766Z,91.69
2018-03-22T20:58:10.684Z,91.34
2018-03-22T21:00:40.587Z,91.97
2018-03-22T21:03:12.213Z,92.53
2018-03-22T21:05:41.999Z,92.17
2018-03-22T21:08:11.971Z,91.81
2018-03-22T21:10:42.655Z,92.13
2018-03-22T21:13:12.440Z,92.10
2018-03-22T21:15:43.057Z,91.10
2018-03-22T21:18:12.868Z,90.75
2018-03-22T21:20:43.560Z,92.02
2018-03-22T21:23:13.532Z,92.40
2018-03-22T21:25:43.311Z,92.57
2018-03-22T21:28:13.126Z,92.36
2018-03-22T21:30:43.990Z,92.52
2018-03-22T21:33:13.860Z,92.75
2018-03-22T21:35:43.992Z,92.65
2018-03-22T21:38:14.804Z,92.59
2018-03-22T21:40:44.768Z,92.16
2018-03-22T21:43:14.841Z,91.97
2018-03-22T21:45:44.610Z,91.93
2018-03-22T21:48:14.509Z,91.78
2018-03-22T21:50:51.184Z,91.91
2018-03-22T21:53:21.248Z,92.28
2018-03-22T21:55:52.611Z,93.86
2018-03-22T21:58:22.483Z,93.59
2018-03-22T22:00:52.446Z,93.52
2018-03-22T22:03:22.505Z,94.76
2018-03-22T22:05:52.031Z,93.69
2018-03-22T22:08:22.204Z,92.68
2018-03-22T22:10:52.490Z,93.09
2018-03-22T22:13:20.972Z,94.13
2018-03-22T22:15:50.094Z,94.69
2018-03-22T22:18:18.423Z,95.58
2018-03-22T22:20:48.223Z,96.07
2018-03-22T22:23:16.482Z,95.82
2018-03-22T22:25:44.732Z,95.85
2018-03-22T22:28:13.780Z,96.25
2018-03-22T22:30:42.051Z,95.94
2018-03-22T22:33:10.302Z,95.67
2018-03-22T22:35:38.573Z,95.44
2018-03-22T22:38:06.869Z,95.89
2018-03-22T22:40:35.122Z,96.24
2018-03-22T22:43:04.123Z,96.57
2018-03-22T22:45:32.384Z,95.34
2018-03-22T22:48:00.642Z,94.84
2018-03-22T22:50:29.692Z,94.62
2018-03-22T22:52:57.936Z,93.87
2018-03-22T22:55:26.204Z,94.11
2018-03-22T22:57:54.491Z,93.43
2018-03-22T23:00:22.752Z,92.86
2018-03-22T23:02:51.009Z,93.85
2018-03-22T23:05:20.054Z,93.87
2018-03-22T23:07:48.334Z,93.94
2018-03-22T23:10:16.569Z,94.36
2018-03-22T23:12:45.609Z,94.03
2018-03-22T23:15:13.862Z,95.75
2018-03-22T23:17:42.112Z,95.50
2018-03-22T23:20:11.188Z,95.44
2018-03-22T23:22:39.441Z,96.45
2018-03-22T23:25:07.702Z,95.79
2018-03-22T23:27:35.976Z,95.91
2018-03-22T23:30:04.232Z,95.54
2018-03-22T23:32:32.505Z,95.42
2018-03-22T23:35:00.771Z,94.60
2018-03-22T23:37:29.036Z,93.88
2018-03-22T23:39:58.068Z,93.49
2018-03-22T23:42:26.347Z,93.35
2018-03-22T23:44:54.605Z,93.68
2018-03-22T23:47:22.863Z,95.09
2018-03-22T23:49:51.139Z,94.30
2018-03-22T23:52:19.396Z,94.27
2018-03-22T23:54:48.436Z,94.26
2018-03-22T23:57:16.700Z,93.99
2018-03-22T23:59:44.977Z,93.38
